Terminal Aerodrome Forecast
Issued by NWS Pendleton, OR

Home | Current Version | Previous Version | Text Only | Print | Product List | Glossary On
Versions: 1 2 3 4 5 6 7 8 9 10 11 12 13 14 15 16 17
000
FTUS46 KPDT 250532
TAFPDT
TAF
KPDT 250532Z 2506/2606 16006KT P6SM BKN110
     FM250900 14005KT P6SM SCT120
     FM251700 31008KT P6SM SCT100 BKN150
     FM260100 26015G25KT P6SM VCSH BKN080 BKN120=

USA.gov is the U.S. government's official web portal to all federal, state and local government web resources and services.